תחנות METAR סמוכות

 

LLBG - Ben-Gurion(Civ/M, Israel
Distance from station: 'מ 83km
עודכן: 28/01/2022 05:20
גשם, בעיקר מעונן
גשם, בעיקר מעונן
 רוח מ 'ד
רוח: 'ד 24 km/h
טמפרטורה: 8°C
אפקט הרוח: 4°C
נקודת הטל: 7°C
לחות: 93%
ברומטר: 1022 hPa
סיכום: גשם
עננים: בעיקר מעונן
ראות: 8 km
Cloud details: Few Clouds 305 m
בעיקר מעונן 762 m
2022/01/28 03:20 LLBG 280320Z 17013KT 8000 RA FEW010 BKN025 08/07 Q1022 NOSIG
LLSD - Sde Dov Airport, Israel
Distance from station: 'מ 75km
עודכן: 30/06/2019 23:50
לא מעודכן
מעונן חלקית
מעונן חלקית
 רוח מ משתנה
רוח: משתנה 6 km/h
טמפרטורה: 27°C
עומס חום: 30°C
נקודת הטל: 23°C
לחות: 79%
ברומטר: 1007 hPa
עננים: מעונן חלקית
ראות: 10 km
Cloud details: מעונן חלקית 518 m
2019/06/30 20:50 LLSD 302050Z VRB03KT 9999 SCT017 27/23 Q1007
 
LLHA - Haifa (isr-Afb), Israel
Distance from station: 'צמ 129km
עודכן: 27/01/2022 21:50
לא מעודכן
בעיקר מעונן
בעיקר מעונן
 רוח מ 'מ
רוח: 'מ 9 km/h
טמפרטורה: 12°C
נקודת הטל: 5°C
לחות: 63%
ברומטר: 1020 hPa
עננים: בעיקר מעונן
ראות: 10 km
Cloud details: Few Clouds 914 m
בעיקר מעונן 1524 m
2022/01/27 19:50 LLHA 271950Z 27005KT 9999 FEW030 BKN050 12/05 Q1020
LLIB - Ben Ya Akov, Israel
Distance from station: 'צמ 183km
עודכן: 27/01/2022 17:50
לא מעודכן
מעונן חלקית
מעונן חלקית
 רוח מ משתנה
רוח: משתנה 6 km/h
טמפרטורה: 6°C
נקודת הטל: 5°C
לחות: 93%
ברומטר: 1019 hPa
עננים: מעונן חלקית
ראות: 10 km
Cloud details: מעונן חלקית 1524 m
2022/01/27 15:50 LLIB 271550Z AUTO VRB03KT 9999 SCT050 06/05 Q1019
 
LLOV - Ovda (isr-Afb/Ci, Israel
Distance from station: 'דדמ 246km
עודכן: 31/03/2019 22:50
לא מעודכן
בהיר
בהיר
 רוח מ 'מדמ
רוח: 'מדמ 13 km/h
טמפרטורה: 12°C
נקודת הטל: 0°C
לחות: 44%
ברומטר: 1012 hPa
סיכום: בהיר
ראות: greater than 10 km
2019/03/31 19:50 LLOV 311950Z 24007KT CAVOK 12/00 Q1012
LLET - Elat/J. Hozman(A, Israel
Distance from station: 'דדמ 287km
עודכן: 18/03/2019 17:50
לא מעודכן
בהיר
בהיר
 רוח מ 'צצמ
רוח: 'צצמ 30 km/h
טמפרטורה: 24°C
נקודת הטל: -1°C
לחות: 19%
ברומטר: 1016 hPa
סיכום: בהיר
ראות: greater than 10 km
2019/03/18 15:50 LLET 181550Z 02016KT CAVOK 24/M01 Q1016
 
LCLK - Larnaca/Larnax A, Cyprus
Distance from station: 'צ 321km
עודכן: 28/01/2022 05:00
בעיקר מעונן
בעיקר מעונן
 רוח מ 'מצמ
רוח: 'מצמ 7 km/h
טמפרטורה: 5°C
אפקט הרוח: 3°C
נקודת הטל: 1°C
לחות: 76%
ברומטר: 1020 hPa
עננים: בעיקר מעונן
ראות: 10 km
Cloud details: בעיקר מעונן 1524 m
2022/01/28 03:00 LCLK 280300Z 29004KT 9999 BKN050 05/01 Q1020 NOSIG